Time;durP1;ratioP1;P1;durP2;ratioP2;P2;SDS_P1;SDS_P2;PMS_P1;PMS_P2;Temp;Humidity;BMP_temperature;BMP_pressure;BME280_temperature;BME280_humidity;BME280_pressure;Samples;Min_cycle;Max_cycle;Signal;HPM_P1;HPM_P2
2023/05/18 00:00:45;;;;;;;2.90;1.50;;;;;;;7.66;100.00;102746.56;4996061;28;20216;-75
2023/05/18 00:03:11;;;;;;;5.33;1.20;;;;;;;6.72;100.00;102655.81;5011467;28;20196;-75
2023/05/18 00:05:36;;;;;;;3.73;1.60;;;;;;;7.00;100.00;102643.66;4997226;28;20213;-75
2023/05/18 00:08:02;;;;;;;4.60;1.40;;;;;;;7.10;100.00;102710.41;4994685;28;20443;-75
2023/05/18 00:10:28;;;;;;;5.00;1.40;;;;;;;6.70;100.00;102617.75;4996805;28;21825;-74
2023/05/18 00:12:54;;;;;;;4.47;1.40;;;;;;;9.11;100.00;103000.34;4998313;28;20185;-74
2023/05/18 00:15:20;;;;;;;2.50;1.17;;;;;;;7.96;100.00;102844.59;4997469;28;20479;-75
2023/05/18 00:17:45;;;;;;;6.10;1.67;;;;;;;8.08;100.00;102853.38;4998153;28;20191;-74
2023/05/18 00:20:11;;;;;;;6.70;2.10;;;;;;;6.89;100.00;102673.06;4998673;28;20185;-74
2023/05/18 00:22:41;;;;;;;6.47;2.07;;;;;;;7.97;100.00;102856.13;4995091;28;20228;-75
2023/05/18 00:25:07;;;;;;;3.90;1.53;;;;;;;7.99;100.00;102855.00;5005173;28;20266;-75
2023/05/18 00:27:32;;;;;;;9.83;1.70;;;;;;;7.95;100.00;102847.38;5007574;28;20862;-75
2023/05/18 00:29:58;;;;;;;2.73;1.20;;;;;;;6.65;100.00;102579.94;5005726;28;20331;-76
2023/05/18 00:32:23;;;;;;;3.23;1.37;;;;;;;6.42;100.00;102605.03;5006977;28;20551;-74
2023/05/18 00:34:48;;;;;;;4.03;1.50;;;;;;;6.69;100.00;102576.06;5007532;28;20673;-75
2023/05/18 00:37:14;;;;;;;3.17;1.30;;;;;;;7.69;100.00;102805.91;4999975;28;20185;-74
2023/05/18 00:39:39;;;;;;;4.63;1.87;;;;;;;7.58;100.00;102775.75;5006246;28;20181;-75
2023/05/18 00:42:05;;;;;;;5.50;1.37;;;;;;;7.88;100.00;102804.31;5005982;28;20190;-75
2023/05/18 00:44:30;;;;;;;2.70;1.37;;;;;;;6.73;100.00;102589.97;5005855;28;20189;-75
2023/05/18 00:46:56;;;;;;;3.60;1.40;;;;;;;7.55;100.00;102750.19;5006099;28;20205;-75
2023/05/18 00:49:21;;;;;;;5.23;1.70;;;;;;;9.04;100.00;102980.47;5007101;28;20181;-76
2023/05/18 00:51:47;;;;;;;5.20;2.13;;;;;;;6.94;100.00;102653.97;5005644;28;20229;-74
2023/05/18 00:54:13;;;;;;;4.00;1.43;;;;;;;8.66;100.00;102931.19;5016097;28;20185;-74
2023/05/18 00:56:41;;;;;;;4.00;1.23;;;;;;;7.35;100.00;102668.28;5003282;28;20205;-75
2023/05/18 00:59:09;;;;;;;3.20;1.47;;;;;;;7.07;100.00;102629.78;4994297;28;20467;-76
2023/05/18 01:01:35;;;;;;;7.10;1.60;;;;;;;7.12;100.00;102667.59;5001929;28;20471;-75
2023/05/18 01:04:01;;;;;;;7.33;1.53;;;;;;;8.06;100.00;102845.47;4999966;28;20782;-75
2023/05/18 01:06:31;;;;;;;9.80;1.80;;;;;;;6.92;100.00;102680.78;4999714;28;20233;-75
2023/05/18 01:08:59;;;;;;;2.13;1.37;;;;;;;7.83;100.00;102779.81;5000963;28;20442;-74
2023/05/18 01:11:41;;;;;;;8.80;1.77;;;;;;;9.41;100.00;102986.06;4998905;28;20472;-76
2023/05/18 01:14:25;;;;;;;6.50;1.63;;;;;;;7.18;100.00;102709.75;5003388;28;20440;-75
2023/05/18 01:17:00;;;;;;;3.93;1.40;;;;;;;6.83;100.00;102678.91;5001931;28;20431;-75
2023/05/18 01:19:48;;;;;;;4.03;1.20;;;;;;;8.95;100.00;102997.38;5004941;28;20432;-75
2023/05/18 01:22:51;;;;;;;5.20;1.50;;;;;;;9.30;100.00;102994.22;4998420;28;20935;-76
2023/05/18 01:25:19;;;;;;;11.93;2.40;;;;;;;9.19;100.00;102994.34;5007761;28;20541;-75
2023/05/18 01:27:45;;;;;;;6.00;1.37;;;;;;;7.46;100.00;102783.84;5007406;28;20472;-76
2023/05/18 01:30:15;;;;;;;4.23;1.63;;;;;;;6.65;100.00;102611.94;5010536;28;20456;-75
2023/05/18 01:32:41;;;;;;;3.87;1.53;;;;;;;9.11;100.00;103024.44;5025199;28;20515;-76
2023/05/18 01:35:07;;;;;;;3.50;1.33;;;;;;;6.74;100.00;102620.97;5001545;28;20453;-75
2023/05/18 01:37:33;;;;;;;4.47;1.57;;;;;;;6.68;100.00;102606.38;5003251;28;20885;-76
2023/05/18 01:39:59;;;;;;;6.57;1.10;;;;;;;7.38;100.00;102790.81;5010003;28;20423;-76
2023/05/18 01:42:28;;;;;;;4.73;1.60;;;;;;;7.66;100.00;102843.53;5009831;28;20188;-75
2023/05/18 01:45:00;;;;;;;2.60;1.13;;;;;;;6.65;100.00;102680.44;5007430;28;20467;-76
2023/05/18 01:47:29;;;;;;;4.80;1.50;;;;;;;7.75;100.00;102870.47;5001303;28;20424;-75
2023/05/18 01:50:21;;;;;;;3.70;1.40;;;;;;;6.83;100.00;102620.22;5008264;28;20424;-76
2023/05/18 01:53:05;;;;;;;5.00;1.60;;;;;;;9.10;100.00;102995.16;5009081;28;20503;-75
2023/05/18 01:55:32;;;;;;;3.87;1.40;;;;;;;6.71;100.00;102584.78;5010435;28;20427;-75
2023/05/18 01:57:59;;;;;;;2.80;1.50;;;;;;;7.25;100.00;102727.78;4998241;28;20858;-75
2023/05/18 02:00:25;;;;;;;2.90;1.20;;;;;;;6.45;100.00;102578.13;5001581;28;20439;-75
2023/05/18 02:02:50;;;;;;;7.70;1.87;;;;;;;6.73;100.00;102582.81;5002358;28;20448;-75
2023/05/18 02:05:16;;;;;;;5.13;1.60;;;;;;;9.26;100.00;103027.63;5003718;28;20472;-75
2023/05/18 02:07:46;;;;;;;2.93;1.10;;;;;;;7.34;100.00;102790.22;5000899;28;20192;-79
2023/05/18 02:10:12;;;;;;;3.50;1.23;;;;;;;8.07;100.00;102855.19;4992790;28;20209;-76
2023/05/18 02:12:37;;;;;;;4.17;1.53;;;;;;;9.18;100.00;103035.50;5001078;28;20439;-75
2023/05/18 02:15:04;;;;;;;4.00;1.63;;;;;;;8.46;100.00;102881.28;5006320;28;20455;-79
2023/05/18 02:17:37;;;;;;;5.43;1.80;;;;;;;9.13;100.00;103019.81;5004973;28;20189;-75
2023/05/18 02:20:07;;;;;;;5.13;1.50;;;;;;;7.17;100.00;102666.19;5005028;28;20900;-76
2023/05/18 02:22:33;;;;;;;4.47;1.27;;;;;;;7.34;100.00;102706.59;5005738;28;20440;-76
2023/05/18 02:24:59;;;;;;;4.37;1.60;;;;;;;7.29;100.00;102767.53;5017165;28;20690;-75
2023/05/18 02:27:24;;;;;;;2.47;1.40;;;;;;;8.98;100.00;103037.25;5006573;28;20428;-75
2023/05/18 02:29:50;;;;;;;6.77;1.77;;;;;;;6.61;100.00;102634.53;5007693;28;20251;-75
2023/05/18 02:32:16;;;;;;;6.27;1.60;;;;;;;6.98;100.00;102655.41;5005657;28;20273;-75
2023/05/18 02:34:41;;;;;;;4.30;1.20;;;;;;;7.74;100.00;102788.63;5002476;28;20491;-76
2023/05/18 02:37:07;;;;;;;6.13;1.63;;;;;;;7.16;100.00;102679.69;5001908;28;20177;-75
2023/05/18 02:39:32;;;;;;;3.53;1.40;;;;;;;6.62;100.00;102614.03;5003792;28;20192;-75
2023/05/18 02:41:59;;;;;;;3.13;1.40;;;;;;;7.05;100.00;102655.72;5003933;28;20193;-75
2023/05/18 02:44:24;;;;;;;5.23;1.57;;;;;;;6.82;100.00;102601.69;5004819;28;20196;-77
2023/05/18 02:46:50;;;;;;;2.80;1.60;;;;;;;9.20;100.00;103020.13;4995906;28;20444;-75
2023/05/18 02:49:15;;;;;;;5.40;1.77;;;;;;;6.95;100.00;102624.50;5001635;28;20181;-76
2023/05/18 02:51:41;;;;;;;4.70;1.33;;;;;;;7.16;100.00;102749.06;5005905;28;20215;-76
2023/05/18 02:54:06;;;;;;;5.60;1.73;;;;;;;7.62;100.00;102788.72;5004666;28;20250;-75
2023/05/18 02:56:32;;;;;;;2.50;1.50;;;;;;;6.59;100.00;102620.47;5002559;28;20240;-74
2023/05/18 02:58:59;;;;;;;3.00;1.13;;;;;;;7.64;100.00;102847.34;5002838;28;20211;-74
2023/05/18 03:01:26;;;;;;;6.27;1.83;;;;;;;8.13;100.00;102856.50;5012001;28;20177;-75
2023/05/18 03:03:57;;;;;;;4.80;1.60;;;;;;;6.98;100.00;102752.31;5001776;28;20444;-73
2023/05/18 03:06:25;;;;;;;5.87;1.57;;;;;;;9.08;100.00;103053.34;5018330;28;20460;-73
2023/05/18 03:08:53;;;;;;;4.83;1.60;;;;;;;6.94;100.00;102678.84;5003555;28;20432;-74
2023/05/18 03:11:19;;;;;;;2.93;1.10;;;;;;;9.09;100.00;103037.16;4993989;28;21041;-74
2023/05/18 03:13:44;;;;;;;4.37;2.00;;;;;;;6.94;100.00;102675.31;5001729;28;20443;-74
2023/05/18 03:16:10;;;;;;;9.60;1.60;;;;;;;7.67;100.00;102813.22;5002023;28;20485;-74
2023/05/18 03:18:35;;;;;;;4.20;1.33;;;;;;;6.88;100.00;102647.34;5002293;28;20865;-76
2023/05/18 03:21:02;;;;;;;6.27;1.57;;;;;;;7.56;100.00;102805.25;5000423;28;20184;-74
2023/05/18 03:23:28;;;;;;;3.30;1.60;;;;;;;9.07;100.00;103009.66;4998494;28;20181;-74
2023/05/18 03:25:54;;;;;;;3.77;1.20;;;;;;;6.36;100.00;102606.38;4997459;28;20456;-74
2023/05/18 03:28:20;;;;;;;4.57;1.50;;;;;;;6.87;100.00;102664.31;5002998;28;20432;-74
2023/05/18 03:30:46;;;;;;;4.00;1.83;;;;;;;6.77;100.00;102687.44;5006101;28;20755;-74
2023/05/18 03:33:11;;;;;;;4.87;1.70;;;;;;;7.47;100.00;102798.03;5007671;28;20928;-74
2023/05/18 03:35:39;;;;;;;4.00;2.23;;;;;;;7.73;100.00;102816.34;5008581;28;20502;-74
2023/05/18 03:38:05;;;;;;;3.10;1.40;;;;;;;8.26;100.00;102968.56;5004510;28;20537;-73
2023/05/18 03:40:31;;;;;;;2.47;1.53;;;;;;;7.11;100.00;102740.59;5006408;28;20519;-73
2023/05/18 03:42:56;;;;;;;7.27;1.77;;;;;;;6.34;100.00;102635.84;5005680;28;20858;-74
2023/05/18 03:45:22;;;;;;;4.33;1.43;;;;;;;7.12;100.00;102732.47;5005637;28;20213;-74
2023/05/18 03:47:47;;;;;;;4.50;1.50;;;;;;;7.65;100.00;102855.22;5007387;28;20617;-74
2023/05/18 03:50:13;;;;;;;7.73;1.63;;;;;;;7.50;100.00;102789.78;4998980;28;20193;-74
2023/05/18 03:52:40;;;;;;;2.27;1.50;;;;;;;7.31;100.00;102702.38;5007039;28;20190;-74
2023/05/18 03:55:05;;;;;;;3.57;1.30;;;;;;;7.43;100.00;102700.47;5005105;28;20236;-75
2023/05/18 03:57:32;;;;;;;6.90;1.30;;;;;;;7.06;100.00;102663.63;5009872;28;20456;-74
2023/05/18 03:59:57;;;;;;;6.00;1.37;;;;;;;6.25;100.00;102545.13;5007682;28;20185;-75
2023/05/18 04:02:23;;;;;;;3.37;1.80;;;;;;;8.45;100.00;102888.47;5008545;28;20420;-75
2023/05/18 04:04:52;;;;;;;4.53;1.40;;;;;;;6.97;100.00;102697.28;5005004;28;20258;-74
2023/05/18 04:07:23;;;;;;;1.63;1.10;;;;;;;6.53;100.00;102696.47;5005465;28;20468;-74
2023/05/18 04:09:49;;;;;;;4.13;1.30;;;;;;;8.44;100.00;103008.94;4998454;23;20495;-71
2023/05/18 04:12:15;;;;;;;5.50;1.80;;;;;;;8.67;100.00;103009.63;4978608;28;20499;-70
2023/05/18 04:14:48;;;;;;;4.13;1.43;;;;;;;8.52;100.00;102963.66;4975481;28;20441;-70
2023/05/18 04:17:17;;;;;;;2.77;1.30;;;;;;;8.41;100.00;102991.31;4976513;28;20194;-71
2023/05/18 04:19:42;;;;;;;4.10;1.10;;;;;;;8.65;100.00;103017.81;4976155;28;20551;-72
2023/05/18 04:22:08;;;;;;;3.53;1.60;;;;;;;8.71;100.00;103027.97;4978104;28;21000;-69
2023/05/18 04:24:34;;;;;;;3.37;1.53;;;;;;;8.98;100.00;103030.06;4992081;28;20659;-69
2023/05/18 04:27:01;;;;;;;5.07;1.17;;;;;;;8.78;100.00;103030.94;4978149;28;20689;-70
2023/05/18 04:29:27;;;;;;;4.17;1.80;;;;;;;8.76;100.00;103024.88;4977036;28;20214;-70
2023/05/18 04:31:59;;;;;;;2.27;1.13;;;;;;;8.55;100.00;102999.00;4990348;28;20515;-70
2023/05/18 04:34:29;;;;;;;4.50;1.30;;;;;;;8.47;100.00;102977.41;4974105;28;20985;-70
2023/05/18 04:36:58;;;;;;;4.77;1.57;;;;;;;8.73;100.00;103035.84;4979012;28;20467;-70
2023/05/18 04:39:24;;;;;;;4.30;1.40;;;;;;;8.66;100.00;103035.53;4977491;28;20488;-70
2023/05/18 04:41:56;;;;;;;3.93;1.20;;;;;;;8.48;100.00;102983.63;4982131;28;20532;-69
2023/05/18 04:44:26;;;;;;;3.60;1.40;;;;;;;8.91;100.00;103023.56;4975801;28;20898;-69
2023/05/18 04:46:52;;;;;;;3.47;1.40;;;;;;;8.94;100.00;103020.63;4975439;28;20437;-70
2023/05/18 04:49:20;;;;;;;5.57;1.50;;;;;;;9.21;100.00;103051.28;4979267;28;20575;-69
2023/05/18 04:51:54;;;;;;;5.30;2.20;;;;;;;9.14;100.00;103059.03;4980887;28;20210;-69
2023/05/18 04:54:23;;;;;;;3.13;1.77;;;;;;;8.68;100.00;103022.00;4992343;28;20500;-69
2023/05/18 04:56:51;;;;;;;7.33;1.57;;;;;;;9.15;100.00;103038.44;4978823;28;20913;-70
2023/05/18 04:59:17;;;;;;;6.00;1.60;;;;;;;8.92;100.00;102977.06;4982032;28;20464;-69
2023/05/18 05:01:44;;;;;;;4.73;1.40;;;;;;;8.83;100.00;103000.13;4981682;28;20985;-70
2023/05/18 05:04:09;;;;;;;2.97;1.40;;;;;;;9.42;100.00;103056.56;4980555;28;20445;-69
2023/05/18 05:06:35;;;;;;;5.80;1.50;;;;;;;9.36;100.00;103051.75;4979218;28;20451;-69
2023/05/18 05:09:00;;;;;;;3.53;1.20;;;;;;;9.43;100.00;103043.03;4981133;28;20190;-70
2023/05/18 05:11:25;;;;;;;3.67;1.13;;;;;;;9.27;100.00;103032.00;4978729;28;20216;-70
2023/05/18 05:13:51;;;;;;;5.07;1.27;;;;;;;9.30;100.00;103042.44;4979622;28;20204;-69
2023/05/18 05:16:16;;;;;;;2.80;1.40;;;;;;;9.34;100.00;103041.16;4993877;28;20185;-69
2023/05/18 05:18:42;;;;;;;7.37;1.93;;;;;;;9.43;100.00;103044.84;4981071;28;20228;-70
2023/05/18 05:21:08;;;;;;;4.80;1.30;;;;;;;9.43;100.00;103067.16;4981597;28;20209;-69
2023/05/18 05:23:34;;;;;;;3.83;1.27;;;;;;;9.04;100.00;103042.06;4998282;28;20236;-69
2023/05/18 05:25:59;;;;;;;2.20;1.47;;;;;;;9.23;100.00;103081.47;4980730;28;20444;-70
2023/05/18 05:28:25;;;;;;;6.07;1.90;;;;;;;9.12;100.00;103036.88;4979871;28;20213;-70
2023/05/18 05:30:50;;;;;;;3.33;1.50;;;;;;;9.37;100.00;103048.91;4981866;28;20216;-69
2023/05/18 05:33:16;;;;;;;3.90;1.40;;;;;;;9.39;100.00;103076.41;4984103;28;20678;-70
2023/05/18 05:35:42;;;;;;;3.77;1.60;;;;;;;9.08;100.00;103022.06;4984139;28;20192;-70
2023/05/18 05:38:07;;;;;;;4.43;1.70;;;;;;;9.21;100.00;103073.53;4986459;28;20425;-70
2023/05/18 05:40:33;;;;;;;3.50;1.37;;;;;;;9.31;100.00;103073.56;4983391;28;20273;-70
2023/05/18 05:42:58;;;;;;;2.40;1.20;;;;;;;9.40;100.00;103072.78;4984640;28;20189;-70
2023/05/18 05:45:27;;;;;;;3.67;1.67;;;;;;;9.31;100.00;103041.44;4985783;28;20613;-70
2023/05/18 05:47:52;;;;;;;4.77;1.57;;;;;;;9.37;100.00;103056.09;4987434;28;20182;-70
2023/05/18 05:50:18;;;;;;;2.47;1.40;;;;;;;9.61;100.00;103043.22;4984243;28;20528;-70
2023/05/18 05:52:43;;;;;;;3.33;1.40;;;;;;;9.80;100.00;103071.84;4986196;28;20193;-69
2023/05/18 05:55:08;;;;;;;2.97;1.63;;;;;;;9.83;100.00;103068.06;4985029;28;20244;-70
2023/05/18 05:57:34;;;;;;;3.53;1.30;;;;;;;9.30;100.00;102988.03;4985131;28;20677;-70
2023/05/18 06:00:00;;;;;;;4.63;1.77;;;;;;;9.83;100.00;103078.78;4983853;28;20197;-69
2023/05/18 06:02:25;;;;;;;3.73;1.47;;;;;;;9.62;100.00;103078.88;4982584;28;20200;-69
2023/05/18 06:04:51;;;;;;;3.00;1.40;;;;;;;9.33;100.00;102974.34;4980267;28;20273;-69
2023/05/18 06:07:16;;;;;;;5.87;1.80;;;;;;;9.70;100.00;103076.38;4978130;28;20198;-70
2023/05/18 06:09:42;;;;;;;3.80;1.17;;;;;;;9.66;100.00;103051.69;4980470;28;20235;-70
2023/05/18 06:12:08;;;;;;;6.53;1.70;;;;;;;9.90;100.00;103077.25;4985258;28;20729;-69
2023/05/18 06:14:33;;;;;;;3.47;1.50;;;;;;;9.87;100.00;103074.84;4982377;28;20221;-69
2023/05/18 06:16:59;;;;;;;3.30;1.23;;;;;;;8.98;100.00;102970.31;4983904;28;21004;-70
2023/05/18 06:19:24;;;;;;;8.10;1.80;;;;;;;9.89;100.00;103072.84;4979119;28;20216;-69
2023/05/18 06:21:50;;;;;;;3.83;1.50;;;;;;;9.57;100.00;103025.69;4984469;28;20186;-70
2023/05/18 06:24:15;;;;;;;3.50;1.80;;;;;;;9.00;100.00;102945.13;4982571;28;20221;-70
2023/05/18 06:26:41;;;;;;;4.73;1.40;;;;;;;9.69;100.00;103061.25;4983322;28;20604;-69
2023/05/18 06:29:07;;;;;;;3.03;1.23;;;;;;;9.63;100.00;103025.16;4981465;28;20225;-69
2023/05/18 06:31:33;;;;;;;5.17;1.27;;;;;;;9.62;100.00;103042.22;4981102;28;20248;-69
2023/05/18 06:33:59;;;;;;;4.00;1.83;;;;;;;9.78;100.00;103062.25;4979213;28;20444;-70
2023/05/18 06:36:24;;;;;;;3.50;1.30;;;;;;;9.74;100.00;103030.38;4980004;28;20987;-69
2023/05/18 06:38:50;;;;;;;5.40;1.73;;;;;;;9.69;100.00;103064.81;4978407;28;20642;-70
2023/05/18 06:41:15;;;;;;;3.67;1.40;;;;;;;9.97;100.00;103078.38;4982898;28;20642;-70
2023/05/18 06:43:41;;;;;;;6.10;1.70;;;;;;;9.66;100.00;103035.59;4982271;28;20214;-69
2023/05/18 06:46:06;;;;;;;3.97;1.30;;;;;;;9.99;100.00;103054.09;4979780;28;20194;-70
2023/05/18 06:48:32;;;;;;;6.20;1.80;;;;;;;10.08;100.00;103056.78;4994968;28;20186;-70
2023/05/18 06:50:58;;;;;;;3.10;1.30;;;;;;;9.78;100.00;102984.53;4978909;28;20209;-69
2023/05/18 06:53:23;;;;;;;3.40;1.70;;;;;;;10.03;100.00;103071.59;4982485;28;20213;-69
2023/05/18 06:55:48;;;;;;;3.40;1.40;;;;;;;10.18;100.00;103067.50;4977126;28;20190;-70
2023/05/18 06:58:14;;;;;;;2.40;1.57;;;;;;;10.22;100.00;103068.91;4980714;28;26105;-69
2023/05/18 07:00:39;;;;;;;4.70;1.47;;;;;;;10.37;100.00;103066.69;4978993;28;20224;-70
2023/05/18 07:03:05;;;;;;;6.73;1.80;;;;;;;10.14;100.00;103040.13;4981081;28;20186;-70
2023/05/18 07:05:30;;;;;;;3.13;1.40;;;;;;;9.77;100.00;102964.94;4977099;28;20198;-70
2023/05/18 07:07:56;;;;;;;5.83;2.10;;;;;;;10.14;100.00;103042.81;4978408;28;20214;-70
2023/05/18 07:10:21;;;;;;;4.10;1.30;;;;;;;10.40;100.00;103074.44;4977513;28;20595;-70
2023/05/18 07:12:48;;;;;;;4.20;1.57;;;;;;;10.33;100.00;103074.19;4983866;28;20559;-69
2023/05/18 07:15:13;;;;;;;4.20;1.33;;;;;;;9.88;100.00;102980.03;4976364;28;20277;-70
2023/05/18 07:17:39;;;;;;;2.47;1.20;;;;;;;10.45;100.00;103069.50;4977657;28;21009;-69
2023/05/18 07:20:06;;;;;;;5.20;1.57;;;;;;;10.19;100.00;103072.72;4977440;28;20222;-69
2023/05/18 07:22:32;;;;;;;4.60;1.30;;;;;;;10.29;100.00;103043.25;4980455;28;20570;-69
2023/05/18 07:24:57;;;;;;;5.63;1.97;;;;;;;10.77;100.00;103082.56;4976166;28;20926;-69
2023/05/18 07:27:23;;;;;;;4.07;1.50;;;;;;;10.69;100.00;103093.19;4986990;28;20440;-70
2023/05/18 07:29:49;;;;;;;4.03;2.10;;;;;;;10.71;100.00;103082.31;4980155;28;20300;-69
2023/05/18 07:32:15;;;;;;;3.67;1.27;;;;;;;10.08;100.00;102980.88;4980274;28;21615;-70
2023/05/18 07:34:42;;;;;;;6.73;1.80;;;;;;;10.91;100.00;103072.38;4980809;28;20762;-70
2023/05/18 07:37:08;;;;;;;3.00;1.27;;;;;;;10.94;100.00;103089.03;4978925;28;20182;-70
2023/05/18 07:39:33;;;;;;;3.20;1.30;;;;;;;10.45;100.00;102991.69;4979737;28;20460;-70
2023/05/18 07:41:59;;;;;;;3.60;1.30;;;;;;;11.11;100.00;103083.84;4980145;28;20445;-70
2023/05/18 07:44:25;;;;;;;4.17;1.30;;;;;;;11.03;100.00;103090.81;4976485;28;20234;-70
2023/05/18 07:46:50;;;;;;;2.20;1.30;;;;;;;11.02;100.00;103116.00;4979077;28;20200;-70
2023/05/18 07:49:16;;;;;;;2.63;1.10;;;;;;;10.98;100.00;103098.47;4973337;28;20262;-69
2023/05/18 07:51:41;;;;;;;3.87;1.50;;;;;;;11.02;100.00;103101.69;4980866;28;20214;-70
2023/05/18 07:54:07;;;;;;;4.93;1.93;;;;;;;10.75;100.00;103038.91;4983504;28;20715;-70
2023/05/18 07:56:33;;;;;;;4.23;1.37;;;;;;;10.97;100.00;103050.28;4971730;28;20289;-70
2023/05/18 07:58:59;;;;;;;2.57;1.27;;;;;;;10.72;100.00;103046.41;4982034;28;20532;-70
2023/05/18 08:01:27;;;;;;;3.03;1.33;;;;;;;10.84;100.00;103097.09;4976276;28;20762;-70
2023/05/18 08:03:53;;;;;;;7.53;1.90;;;;;;;10.92;100.00;103101.75;4977067;28;20224;-69
2023/05/18 08:06:19;;;;;;;3.97;1.30;;;;;;;11.00;100.00;103084.91;4975581;28;20446;-70
2023/05/18 08:08:45;;;;;;;2.00;1.23;;;;;;;10.73;100.00;103051.66;4978825;28;20925;-70
2023/05/18 08:11:11;;;;;;;3.53;1.17;;;;;;;10.67;100.00;102997.69;4981602;28;20512;-70
2023/05/18 08:13:36;;;;;;;4.20;1.53;;;;;;;10.97;100.00;103024.28;4979601;28;20874;-70
2023/05/18 08:16:02;;;;;;;3.43;1.23;;;;;;;11.57;100.00;103087.44;4971447;28;21046;-69
2023/05/18 08:18:28;;;;;;;4.03;1.40;;;;;;;11.58;100.00;103073.88;4979512;28;20197;-70
2023/05/18 08:20:54;;;;;;;5.77;1.30;;;;;;;11.21;100.00;103039.00;4997796;28;20206;-69
2023/05/18 08:23:20;;;;;;;3.63;0.97;;;;;;;11.41;100.00;103045.97;4999443;28;20273;-70
2023/05/18 08:25:45;;;;;;;2.87;1.27;;;;;;;11.54;100.00;103092.16;4979778;28;20907;-69
2023/05/18 08:28:11;;;;;;;4.33;1.47;;;;;;;11.20;100.00;103075.78;4977403;28;20719;-70
2023/05/18 08:30:36;;;;;;;6.20;1.40;;;;;;;11.62;100.00;103072.56;4982806;28;20213;-70
2023/05/18 08:33:02;;;;;;;4.13;1.30;;;;;;;11.53;100.00;103081.53;4984721;28;20197;-70
2023/05/18 08:35:27;;;;;;;4.67;1.73;;;;;;;11.52;100.00;103069.94;4993925;28;20189;-70
2023/05/18 08:37:54;;;;;;;5.13;1.60;;;;;;;11.34;100.00;103061.00;4980621;28;20189;-70
2023/05/18 08:40:19;;;;;;;3.67;1.20;;;;;;;11.37;100.00;103039.22;4979682;28;20686;-69
2023/05/18 08:43:02;;;;;;;3.90;1.23;;;;;;;11.34;100.00;102998.34;4982239;28;20451;-69
2023/05/18 08:45:34;;;;;;;5.97;1.80;;;;;;;11.89;100.00;103065.47;4979801;28;20451;-69
2023/05/18 08:48:02;;;;;;;4.07;1.20;;;;;;;12.04;100.00;103071.19;4979790;28;20508;-69
2023/05/18 08:50:30;;;;;;;5.07;1.53;;;;;;;11.96;100.00;103067.41;4981692;28;20477;-70
2023/05/18 08:53:00;;;;;;;2.60;1.20;;;;;;;11.58;100.00;102987.03;4979529;28;20506;-69
2023/05/18 08:55:28;;;;;;;5.53;1.63;;;;;;;11.96;100.00;103078.16;4981114;28;20450;-69
2023/05/18 08:57:56;;;;;;;3.50;1.40;;;;;;;11.20;100.00;102976.38;4978936;28;20801;-69
2023/05/18 09:00:23;;;;;;;6.40;1.80;;;;;;;11.43;100.00;102982.19;4982574;28;20499;-69
2023/05/18 09:02:49;;;;;;;4.40;1.43;;;;;;;11.98;100.00;103038.53;4978697;28;20483;-69
2023/05/18 09:05:16;;;;;;;3.87;1.50;;;;;;;12.36;100.00;103070.63;4964998;28;20448;-70
2023/05/18 09:07:42;;;;;;;4.73;1.27;;;;;;;12.38;100.00;103066.78;4978379;28;20497;-69
2023/05/18 09:10:12;;;;;;;5.90;1.57;;;;;;;11.59;100.00;103023.66;4982365;28;20500;-69
2023/05/18 09:12:41;;;;;;;6.47;1.77;;;;;;;12.09;100.00;103033.88;4981669;28;20453;-68
2023/05/18 09:15:09;;;;;;;2.07;1.50;;;;;;;12.28;100.00;103043.63;4978082;28;20444;-69
2023/05/18 09:17:35;;;;;;;8.90;1.73;;;;;;;12.35;100.00;103066.22;4974404;28;20834;-69
2023/05/18 09:20:00;;;;;;;5.03;1.90;;;;;;;12.24;100.00;103031.47;4979790;28;20463;-68
2023/05/18 09:22:26;;;;;;;6.10;2.07;;;;;;;12.14;100.00;103036.97;4981930;28;20687;-68
2023/05/18 09:24:52;;;;;;;3.77;1.37;;;;;;;12.51;100.00;103047.50;4978515;28;20186;-69
2023/05/18 09:27:17;;;;;;;3.50;1.30;;;;;;;12.86;100.00;103061.88;4983081;28;20189;-67
2023/05/18 09:29:54;;;;;;;3.53;1.40;;;;;;;12.40;100.00;103031.63;4981193;28;20210;-68
2023/05/18 09:32:21;;;;;;;2.90;1.30;;;;;;;12.16;100.00;103033.13;4980913;28;20312;-68
2023/05/18 09:34:47;;;;;;;3.50;1.30;;;;;;;11.85;100.00;103029.13;4985201;28;20953;-68
2023/05/18 09:37:20;;;;;;;5.00;1.57;;;;;;;12.16;100.00;103056.50;4982775;28;20445;-68
2023/05/18 09:40:00;;;;;;;3.30;1.70;;;;;;;12.12;100.00;103047.91;4983653;28;20499;-68
2023/05/18 09:42:36;;;;;;;5.13;1.60;;;;;;;12.36;100.00;103043.72;4984445;28;20433;-68
2023/05/18 09:45:02;;;;;;;3.80;1.50;;;;;;;12.00;100.00;103000.69;4984613;28;20425;-68
2023/05/18 09:47:28;;;;;;;4.00;1.63;;;;;;;12.63;100.00;103054.31;4980051;28;20448;-68
2023/05/18 09:49:56;;;;;;;2.87;1.30;;;;;;;12.59;100.00;103041.34;4979901;28;20469;-68
2023/05/18 09:52:21;;;;;;;3.70;1.30;;;;;;;12.83;100.00;103041.47;4976018;28;20217;-68
2023/05/18 09:54:57;;;;;;;6.00;2.10;;;;;;;12.98;100.00;103024.72;4971722;28;20446;-68
2023/05/18 09:57:22;;;;;;;3.30;1.20;;;;;;;13.14;100.00;102989.78;4969840;28;20181;-68
2023/05/18 10:00:09;;;;;;;5.70;1.53;;;;;;;13.34;100.00;103037.03;4978013;28;20540;-68
2023/05/18 10:02:37;;;;;;;5.70;1.70;;;;;;;12.84;100.00;103013.56;4972399;28;20212;-68
2023/05/18 10:05:03;;;;;;;3.07;1.20;;;;;;;12.80;100.00;103003.25;4976522;28;20531;-68
2023/05/18 10:07:28;;;;;;;4.73;1.70;;;;;;;12.94;100.00;103045.75;4973382;28;20976;-68
2023/05/18 10:10:02;;;;;;;4.57;1.40;;;;;;;13.04;100.00;103040.22;4977846;28;20920;-68
2023/05/18 10:12:28;;;;;;;4.50;1.97;;;;;;;11.96;100.00;102918.66;4994765;23;20240;-79
2023/05/18 10:14:53;;;;;;;7.23;2.33;;;;;;;10.74;100.00;102747.34;4991487;28;20710;-78
2023/05/18 10:17:24;;;;;;;10.17;3.60;;;;;;;11.87;100.00;102992.19;4996455;28;20180;-81
2023/05/18 10:19:52;;;;;;;8.23;3.13;;;;;;;11.59;100.00;102900.00;5019627;28;20864;-80
2023/05/18 10:22:22;;;;;;;6.63;2.10;;;;;;;10.75;100.00;102780.38;5002852;28;20907;-82
2023/05/18 10:24:53;;;;;;;3.30;1.50;;;;;;;11.71;100.00;102880.78;5009762;28;20491;-82
2023/05/18 10:27:25;;;;;;;6.60;1.83;;;;;;;12.14;100.00;102932.03;4998795;28;20587;-79
2023/05/18 10:29:53;;;;;;;7.40;1.80;;;;;;;10.77;100.00;102662.97;5004529;28;20471;-79
2023/05/18 10:32:21;;;;;;;4.90;1.70;;;;;;;11.92;100.00;102861.66;4997107;28;20471;-78
2023/05/18 10:34:49;;;;;;;4.23;2.17;;;;;;;10.73;100.00;102664.28;4998968;28;20494;-76
2023/05/18 10:37:16;;;;;;;3.27;1.70;;;;;;;12.07;100.00;102869.13;4998003;28;21006;-78
2023/05/18 10:39:44;;;;;;;4.60;1.90;;;;;;;11.02;100.00;102706.94;4998084;28;20448;-80
2023/05/18 10:42:12;;;;;;;4.43;1.70;;;;;;;12.77;100.00;102984.72;4996278;28;20476;-78
2023/05/18 10:44:38;;;;;;;4.33;2.00;;;;;;;11.91;100.00;102848.34;4992046;28;21102;-79
2023/05/18 10:47:07;;;;;;;3.43;1.70;;;;;;;11.31;100.00;102712.03;4992264;28;20906;-81
2023/05/18 10:49:35;;;;;;;4.77;2.10;;;;;;;13.05;100.00;103037.38;5000887;28;20459;-80
2023/05/18 10:52:02;;;;;;;4.70;1.80;;;;;;;12.56;100.00;102983.28;4991880;28;20506;-83
2023/05/18 10:54:29;;;;;;;7.77;1.90;;;;;;;11.07;100.00;102732.34;5003697;28;20449;-82
2023/05/18 10:56:55;;;;;;;4.93;2.00;;;;;;;10.93;100.00;102700.66;4992510;28;21052;-81
2023/05/18 10:59:24;;;;;;;6.13;1.93;;;;;;;11.44;100.00;102784.16;5000280;28;20473;-82
2023/05/18 11:01:52;;;;;;;4.67;1.50;;;;;;;11.42;100.00;102762.81;4990709;28;20923;-79
2023/05/18 11:04:25;;;;;;;5.07;2.00;;;;;;;11.14;100.00;102675.31;4999306;28;22319;-79
2023/05/18 11:06:58;;;;;;;5.17;1.90;;;;;;;11.82;100.00;102825.91;4994800;28;20455;-80
2023/05/18 11:09:25;;;;;;;4.23;1.53;;;;;;;11.21;100.00;102757.81;5004274;28;20530;-79
2023/05/18 11:11:58;;;;;;;5.67;2.20;;;;;;;12.20;100.00;102902.66;4995549;28;20583;-79
2023/05/18 11:14:29;;;;;;;4.20;1.80;;;;;;;12.60;100.00;102897.66;4997956;28;20483;-79
2023/05/18 11:17:14;;;;;;;4.20;1.93;;;;;;;13.46;100.00;103023.25;4998662;28;20487;-81
2023/05/18 11:19:39;;;;;;;4.33;1.60;;;;;;;12.83;100.00;102868.28;4992071;28;20979;-78
2023/05/18 11:22:11;;;;;;;10.10;2.37;;;;;;;11.83;100.00;102719.19;5008026;28;20546;-77